createdAt,value
2023-06-05T00:00:48.583Z,102509.28
2023-06-05T00:03:15.156Z,102519.50
2023-06-05T00:05:41.952Z,102520.53
2023-06-05T00:08:10.176Z,102518.06
2023-06-05T00:10:36.615Z,102517.28
2023-06-05T00:13:03.132Z,102514.25
2023-06-05T00:15:29.777Z,102510.66
2023-06-05T00:17:56.436Z,102515.78
2023-06-05T00:20:22.968Z,102509.56
2023-06-05T00:22:49.967Z,102511.34
2023-06-05T00:25:16.588Z,102502.94
2023-06-05T00:27:43.128Z,102504.25
2023-06-05T00:30:10.983Z,102502.00
2023-06-05T00:32:37.889Z,102499.22
2023-06-05T00:35:04.827Z,102508.34
2023-06-05T00:37:31.359Z,102512.53
2023-06-05T00:39:57.822Z,102507.41
2023-06-05T00:42:24.215Z,102500.63
2023-06-05T00:44:50.601Z,102516.16
2023-06-05T00:47:17.082Z,102516.53
2023-06-05T00:49:44.029Z,102511.41
2023-06-05T00:52:11.196Z,102511.88
2023-06-05T00:54:37.969Z,102516.19
2023-06-05T00:57:04.871Z,102515.84
2023-06-05T00:59:33.171Z,102513.63
2023-06-05T01:02:00.439Z,102510.59
2023-06-05T01:04:28.172Z,102513.75
2023-06-05T01:06:54.621Z,102515.59
2023-06-05T01:09:21.112Z,102512.13
2023-06-05T01:11:50.438Z,102509.09
2023-06-05T01:14:21.536Z,102514.09
2023-06-05T01:16:52.094Z,102509.22
2023-06-05T01:19:18.719Z,102512.34
2023-06-05T01:21:45.197Z,102501.81
2023-06-05T01:24:14.345Z,102498.59
2023-06-05T01:27:02.345Z,102502.31
2023-06-05T01:29:37.202Z,102497.16
2023-06-05T01:32:12.733Z,102493.53
2023-06-05T01:34:44.876Z,102490.28
2023-06-05T01:37:15.393Z,102493.19
2023-06-05T01:39:44.616Z,102489.34
2023-06-05T01:42:12.292Z,102487.69
2023-06-05T01:44:39.628Z,102490.88
2023-06-05T01:47:06.813Z,102485.38
2023-06-05T01:49:33.277Z,102486.66
2023-06-05T01:51:59.704Z,102480.47
2023-06-05T01:54:27.386Z,102481.28
2023-06-05T01:56:56.665Z,102487.13
2023-06-05T01:59:23.277Z,102481.63
2023-06-05T02:01:50.151Z,102477.53
2023-06-05T02:04:20.029Z,102479.88
2023-06-05T02:06:46.768Z,102477.41
2023-06-05T02:09:13.885Z,102484.06
2023-06-05T02:11:43.452Z,102481.63
2023-06-05T02:14:13.394Z,102474.63
2023-06-05T02:16:41.933Z,102467.63
2023-06-05T02:19:08.844Z,102475.31
2023-06-05T02:21:36.358Z,102478.44
2023-06-05T02:24:06.319Z,102474.13
2023-06-05T02:26:32.818Z,102473.09
2023-06-05T02:28:59.460Z,102467.59
2023-06-05T02:31:26.965Z,102470.97
2023-06-05T02:33:55.100Z,102469.56
2023-06-05T02:36:22.127Z,102466.28
2023-06-05T02:38:52.016Z,102466.75
2023-06-05T02:41:19.089Z,102471.50
2023-06-05T02:43:46.050Z,102470.81
2023-06-05T02:46:12.949Z,102466.94
2023-06-05T02:48:39.447Z,102464.50
2023-06-05T02:51:07.761Z,102465.78
2023-06-05T02:53:34.469Z,102463.31
2023-06-05T02:56:02.735Z,102464.13
2023-06-05T02:58:29.681Z,102464.00
2023-06-05T03:01:03.025Z,102453.69
2023-06-05T03:03:33.333Z,102455.78
2023-06-05T03:06:05.231Z,102456.84
2023-06-05T03:08:33.906Z,102449.25
2023-06-05T03:11:05.025Z,102451.69
2023-06-05T03:13:33.368Z,102456.25
2023-06-05T03:16:02.102Z,102449.69
2023-06-05T03:18:29.555Z,102445.38
2023-06-05T03:20:57.139Z,102446.66
2023-06-05T03:23:28.803Z,102452.84
2023-06-05T03:25:55.793Z,102448.50
2023-06-05T03:28:24.101Z,102440.94
2023-06-05T03:30:50.793Z,102442.00
2023-06-05T03:33:18.620Z,102440.56
2023-06-05T03:35:48.177Z,102443.72
2023-06-05T03:38:15.126Z,102441.03
2023-06-05T03:40:42.419Z,102439.16
2023-06-05T03:43:09.062Z,102438.13
2023-06-05T03:45:36.887Z,102433.56
2023-06-05T03:48:03.843Z,102440.81
2023-06-05T03:50:31.598Z,102444.66
2023-06-05T03:53:03.410Z,102445.25
2023-06-05T03:55:45.263Z,102441.75
2023-06-05T03:58:15.685Z,102450.84
2023-06-05T04:00:46.077Z,102443.63
2023-06-05T04:03:13.569Z,102444.44
2023-06-05T04:05:40.994Z,102441.75
2023-06-05T04:08:10.326Z,102452.84
2023-06-05T04:10:37.427Z,102449.09
2023-06-05T04:13:07.166Z,102448.06
2023-06-05T04:15:34.728Z,102457.75
2023-06-05T04:18:01.209Z,102454.81
2023-06-05T04:20:27.782Z,102456.09
2023-06-05T04:22:54.231Z,102455.66
2023-06-05T04:25:20.757Z,102455.22
2023-06-05T04:27:51.344Z,102453.09
2023-06-05T04:30:18.465Z,102463.38
2023-06-05T04:32:55.462Z,102455.56
2023-06-05T04:35:23.047Z,102457.81
2023-06-05T04:37:51.252Z,102457.59
2023-06-05T04:40:19.176Z,102469.50
2023-06-05T04:42:45.871Z,102468.22
2023-06-05T04:45:12.287Z,102470.22
2023-06-05T04:47:38.862Z,102471.41
2023-06-05T04:50:06.556Z,102468.03
2023-06-05T04:52:34.152Z,102473.16
2023-06-05T04:55:02.471Z,102475.13
2023-06-05T04:57:30.158Z,102473.78
2023-06-05T05:00:00.197Z,102472.25
2023-06-05T05:02:27.399Z,102471.00
2023-06-05T05:04:53.896Z,102475.91
2023-06-05T05:07:20.381Z,102488.13
2023-06-05T05:09:47.184Z,102472.19
2023-06-05T05:12:13.593Z,102478.19
2023-06-05T05:14:41.237Z,102472.63
2023-06-05T05:17:07.776Z,102476.41
2023-06-05T05:19:34.323Z,102477.72
2023-06-05T05:22:00.774Z,102481.00
2023-06-05T05:24:27.238Z,102476.69
2023-06-05T05:26:53.878Z,102476.44
2023-06-05T05:29:20.468Z,102479.97
2023-06-05T05:31:47.036Z,102475.72
2023-06-05T05:34:13.609Z,102482.41
2023-06-05T05:36:39.983Z,102468.31
2023-06-05T05:39:08.227Z,102471.31
2023-06-05T05:41:36.107Z,102471.31
2023-06-05T05:44:02.571Z,102475.56
2023-06-05T05:46:28.963Z,102474.22
2023-06-05T05:48:56.049Z,102464.19
2023-06-05T05:51:22.616Z,102465.75
2023-06-05T05:53:49.026Z,102469.44
2023-06-05T05:56:15.700Z,102469.59
2023-06-05T05:58:42.177Z,102466.59
2023-06-05T06:01:08.831Z,102470.75
2023-06-05T06:03:38.174Z,102466.03
2023-06-05T06:06:08.113Z,102467.22
2023-06-05T06:08:36.121Z,102469.53
2023-06-05T06:11:05.227Z,102477.47
2023-06-05T06:13:31.758Z,102475.16
2023-06-05T06:15:58.212Z,102479.28
2023-06-05T06:18:24.750Z,102470.47
2023-06-05T06:20:51.163Z,102473.00
2023-06-05T06:23:17.769Z,102469.19
2023-06-05T06:25:44.802Z,102475.50
2023-06-05T06:28:11.289Z,102472.81
2023-06-05T06:30:37.781Z,102481.16
2023-06-05T06:33:05.271Z,102481.03
2023-06-05T06:35:35.904Z,102483.06
2023-06-05T06:38:02.454Z,102484.91
2023-06-05T06:40:30.252Z,102476.78
2023-06-05T06:42:56.941Z,102482.97
2023-06-05T06:45:23.607Z,102480.06
2023-06-05T06:48:05.840Z,102484.78
2023-06-05T06:50:33.754Z,102481.91
2023-06-05T06:53:00.229Z,102478.38
2023-06-05T06:55:26.892Z,102480.75
2023-06-05T06:57:53.527Z,102471.78
2023-06-05T07:00:21.476Z,102481.59
2023-06-05T07:02:48.471Z,102476.78
2023-06-05T07:05:15.717Z,102482.72
2023-06-05T07:07:42.446Z,102485.19
2023-06-05T07:10:09.484Z,102492.75
2023-06-05T07:12:35.936Z,102487.09
2023-06-05T07:15:02.557Z,102485.28
2023-06-05T07:17:31.136Z,102480.97
2023-06-05T07:19:58.573Z,102495.41
2023-06-05T07:22:30.396Z,102483.91
2023-06-05T07:24:56.913Z,102488.84
2023-06-05T07:27:23.957Z,102484.50
2023-06-05T07:29:51.297Z,102489.72
2023-06-05T07:32:19.314Z,102488.34
2023-06-05T07:34:46.206Z,102495.41
2023-06-05T07:37:12.653Z,102492.16
2023-06-05T07:39:39.130Z,102486.19
2023-06-05T07:42:06.860Z,102483.97
2023-06-05T07:44:33.334Z,102486.94
2023-06-05T07:46:59.798Z,102486.63
2023-06-05T07:49:26.326Z,102484.97
2023-06-05T07:51:52.739Z,102486.94
2023-06-05T07:54:20.467Z,102488.56
2023-06-05T07:56:50.099Z,102479.38
2023-06-05T07:59:17.758Z,102487.19
2023-06-05T08:01:44.594Z,102480.97
2023-06-05T08:04:14.258Z,102483.16
2023-06-05T08:06:41.392Z,102481.06
2023-06-05T08:09:12.123Z,102487.91
2023-06-05T08:11:44.880Z,102486.41
2023-06-05T08:14:11.387Z,102484.44
2023-06-05T08:16:37.967Z,102495.53
2023-06-05T08:19:05.114Z,102488.97
2023-06-05T08:21:32.029Z,102481.31
2023-06-05T08:23:58.865Z,102482.91
2023-06-05T08:26:26.923Z,102479.50
2023-06-05T08:28:53.583Z,102481.22
2023-06-05T08:31:20.304Z,102477.06
2023-06-05T08:33:46.908Z,102474.06
2023-06-05T08:36:13.554Z,102477.28
2023-06-05T08:38:42.112Z,102473.84
2023-06-05T08:41:11.764Z,102472.78
2023-06-05T08:43:39.790Z,102468.63
2023-06-05T08:46:09.009Z,102464.28
2023-06-05T08:48:43.162Z,102467.84
2023-06-05T08:51:14.697Z,102465.09
2023-06-05T08:53:45.368Z,102466.09
2023-06-05T08:56:12.315Z,102466.84
2023-06-05T08:58:39.148Z,102468.28
2023-06-05T09:01:05.899Z,102461.91
2023-06-05T09:03:34.366Z,102459.97
2023-06-05T09:06:01.994Z,102471.38
2023-06-05T09:08:33.878Z,102464.28
2023-06-05T09:11:22.849Z,102465.13
2023-06-05T09:13:49.598Z,102454.63
2023-06-05T09:16:20.206Z,102456.13
2023-06-05T09:18:58.015Z,102451.69
2023-06-05T09:21:33.496Z,102448.34
2023-06-05T09:24:15.222Z,102451.53
2023-06-05T09:27:01.688Z,102450.34
2023-06-05T09:29:33.471Z,102450.34
2023-06-05T09:32:05.102Z,102446.25
2023-06-05T09:34:34.293Z,102447.25
2023-06-05T09:37:02.684Z,102444.06
2023-06-05T09:39:30.877Z,102436.38
2023-06-05T09:41:58.618Z,102434.41
2023-06-05T09:44:26.464Z,102437.94
2023-06-05T09:46:57.068Z,102433.69
2023-06-05T09:49:30.242Z,102432.38
2023-06-05T09:51:58.938Z,102430.63
2023-06-05T09:54:30.938Z,102429.22
2023-06-05T09:57:04.084Z,102426.78
2023-06-05T09:59:33.384Z,102421.97
2023-06-05T10:02:07.839Z,102422.19
2023-06-05T10:04:47.221Z,102414.53
2023-06-05T10:07:14.600Z,102425.97
2023-06-05T10:09:42.455Z,102424.84
2023-06-05T10:12:10.112Z,102417.13
2023-06-05T10:14:37.712Z,102418.28
2023-06-05T10:17:04.492Z,102416.94
2023-06-05T10:19:31.211Z,102411.31
2023-06-05T10:21:57.762Z,102420.34
2023-06-05T10:24:35.986Z,102415.84
2023-06-05T10:27:37.031Z,102414.34
2023-06-05T10:30:21.835Z,102411.19
2023-06-05T10:33:21.748Z,102413.88
2023-06-05T10:35:54.170Z,102401.22
2023-06-05T10:38:27.124Z,102400.06
2023-06-05T10:40:55.728Z,102402.47
2023-06-05T10:43:34.133Z,102398.31
2023-06-05T10:49:10.489Z,102403.41
2023-06-05T10:51:42.038Z,102392.41
2023-06-05T10:54:09.537Z,102400.06
2023-06-05T10:57:06.701Z,102391.53
2023-06-05T10:59:35.465Z,102394.06
2023-06-05T11:02:17.747Z,102390.13
2023-06-05T11:04:47.711Z,102388.22
2023-06-05T11:07:18.995Z,102381.13
2023-06-05T11:10:21.682Z,102384.72
2023-06-05T11:12:48.413Z,102373.84
2023-06-05T11:15:24.216Z,102379.03
2023-06-05T11:17:51.398Z,102369.78
2023-06-05T11:20:23.918Z,102375.44
2023-06-05T11:22:53.405Z,102378.75
2023-06-05T11:25:22.201Z,102372.94
2023-06-05T11:27:51.106Z,102369.88
2023-06-05T11:30:35.000Z,102363.53
2023-06-05T11:33:13.682Z,102364.69
2023-06-05T11:35:42.561Z,102355.59
2023-06-05T11:38:10.930Z,102360.47
2023-06-05T11:40:38.238Z,102355.63
2023-06-05T11:43:06.306Z,102364.16
2023-06-05T11:45:42.049Z,102359.78
2023-06-05T11:48:12.373Z,102351.06
2023-06-05T11:50:41.490Z,102351.16
2023-06-05T11:53:12.622Z,102345.50
2023-06-05T11:55:56.092Z,102348.25
2023-06-05T11:58:23.325Z,102352.09
2023-06-05T12:00:50.576Z,102353.69
2023-06-05T12:03:23.354Z,102352.09
2023-06-05T12:05:50.608Z,102350.50
2023-06-05T12:08:28.704Z,102352.16
2023-06-05T12:10:57.555Z,102349.22
2023-06-05T12:13:24.019Z,102338.00
2023-06-05T12:16:00.320Z,102345.38
2023-06-05T12:18:35.763Z,102340.09
2023-06-05T12:21:02.828Z,102346.72
2023-06-05T12:23:33.761Z,102342.13
2023-06-05T12:26:04.932Z,102345.81
2023-06-05T12:28:32.442Z,102336.72
2023-06-05T12:30:59.514Z,102336.84
2023-06-05T12:33:26.086Z,102335.31
2023-06-05T12:36:11.612Z,102333.59
2023-06-05T12:38:39.675Z,102334.41
2023-06-05T12:41:09.193Z,102335.19
2023-06-05T12:43:36.625Z,102339.22
2023-06-05T12:46:03.542Z,102344.19
2023-06-05T12:48:30.170Z,102331.94
2023-06-05T12:50:57.610Z,102332.47
2023-06-05T12:53:24.234Z,102331.31
2023-06-05T12:55:51.099Z,102326.50
2023-06-05T12:58:17.971Z,102321.53
2023-06-05T13:00:45.351Z,102328.66
2023-06-05T13:03:13.510Z,102327.41
2023-06-05T13:05:40.506Z,102313.88
2023-06-05T13:08:07.392Z,102318.88
2023-06-05T13:10:33.834Z,102313.75
2023-06-05T13:13:00.436Z,102311.28
2023-06-05T13:15:26.943Z,102313.94
2023-06-05T13:17:53.426Z,102297.63
2023-06-05T13:20:19.939Z,102293.72
2023-06-05T13:22:46.434Z,102302.47
2023-06-05T13:25:14.024Z,102303.00
2023-06-05T13:27:41.106Z,102291.28
2023-06-05T13:30:08.351Z,102284.44
2023-06-05T13:32:35.761Z,102279.00
2023-06-05T13:35:02.320Z,102283.25
2023-06-05T13:37:29.160Z,102282.22
2023-06-05T13:39:55.745Z,102275.31
2023-06-05T13:42:22.175Z,102290.31
2023-06-05T13:44:48.613Z,102272.16
2023-06-05T13:47:15.120Z,102281.75
2023-06-05T13:49:42.731Z,102280.31
2023-06-05T13:52:09.205Z,102285.31
2023-06-05T13:54:35.628Z,102280.53
2023-06-05T13:57:02.221Z,102283.25
2023-06-05T13:59:28.672Z,102278.00
2023-06-05T14:01:55.150Z,102279.22
2023-06-05T14:04:22.012Z,102281.66
2023-06-05T14:06:48.505Z,102275.94
2023-06-05T14:09:14.984Z,102276.63
2023-06-05T14:11:45.672Z,102275.50
2023-06-05T14:14:12.837Z,102277.63
2023-06-05T14:16:39.572Z,102260.03
2023-06-05T14:19:06.302Z,102273.06
2023-06-05T14:21:32.748Z,102270.44
2023-06-05T14:23:59.221Z,102272.81
2023-06-05T14:26:26.652Z,102268.25
2023-06-05T14:28:53.132Z,102266.03
2023-06-05T14:31:19.725Z,102258.81
2023-06-05T14:33:47.759Z,102262.63
2023-06-05T14:36:16.302Z,102260.84
2023-06-05T14:38:42.783Z,102258.84
2023-06-05T14:41:09.338Z,102256.00
2023-06-05T14:43:36.299Z,102258.34
2023-06-05T14:46:03.398Z,102257.47
2023-06-05T14:48:30.630Z,102256.69
2023-06-05T14:50:57.152Z,102259.47
2023-06-05T14:53:25.924Z,102252.28
2023-06-05T14:55:52.394Z,102250.91
2023-06-05T14:58:18.876Z,102253.31
2023-06-05T15:00:46.966Z,102246.34
2023-06-05T15:03:13.636Z,102250.91
2023-06-05T15:05:40.277Z,102249.09
2023-06-05T15:08:07.291Z,102245.97
2023-06-05T15:10:33.793Z,102239.31
2023-06-05T15:13:00.336Z,102248.41
2023-06-05T15:15:27.064Z,102236.06
2023-06-05T15:17:53.661Z,102235.84
2023-06-05T15:20:23.980Z,102234.53
2023-06-05T15:23:00.458Z,102238.97
2023-06-05T15:25:36.018Z,102237.38
2023-06-05T15:28:03.238Z,102233.09
2023-06-05T15:30:29.741Z,102229.28
2023-06-05T15:32:56.360Z,102231.16
2023-06-05T15:35:22.852Z,102231.69
2023-06-05T15:37:49.393Z,102226.78
2023-06-05T15:40:16.117Z,102227.19
2023-06-05T15:42:44.426Z,102231.50
2023-06-05T15:45:14.133Z,102232.13
2023-06-05T15:47:41.187Z,102233.69
2023-06-05T15:50:08.819Z,102237.38
2023-06-05T15:52:36.748Z,102230.38
2023-06-05T15:55:03.970Z,102232.53
2023-06-05T15:57:30.509Z,102230.13
2023-06-05T15:59:57.570Z,102233.13
2023-06-05T16:02:24.216Z,102230.81
2023-06-05T16:04:50.930Z,102224.84
2023-06-05T16:07:17.432Z,102229.22
2023-06-05T16:09:44.490Z,102229.81
2023-06-05T16:12:11.960Z,102222.63
2023-06-05T16:14:38.445Z,102217.25
2023-06-05T16:17:08.178Z,102220.91
2023-06-05T16:19:34.641Z,102213.81
2023-06-05T16:22:01.120Z,102216.78
2023-06-05T16:24:27.695Z,102211.28
2023-06-05T16:26:54.237Z,102212.56
2023-06-05T16:29:21.493Z,102207.41
2023-06-05T16:31:49.067Z,102216.19
2023-06-05T16:34:15.758Z,102209.44
2023-06-05T16:36:42.479Z,102215.38
2023-06-05T16:39:11.141Z,102211.38
2023-06-05T16:41:38.297Z,102201.34
2023-06-05T16:44:04.870Z,102206.84
2023-06-05T16:46:31.856Z,102205.00
2023-06-05T16:48:58.540Z,102203.94
2023-06-05T16:51:25.087Z,102205.66
2023-06-05T16:53:52.239Z,102205.41
2023-06-05T16:56:18.882Z,102203.69
2023-06-05T16:58:45.488Z,102209.63
2023-06-05T17:01:12.414Z,102207.25
2023-06-05T17:03:39.600Z,102202.75
2023-06-05T17:06:06.871Z,102207.56
2023-06-05T17:08:34.366Z,102196.56
2023-06-05T17:11:00.994Z,102207.09
2023-06-05T17:13:27.505Z,102209.56
2023-06-05T17:15:54.001Z,102202.06
2023-06-05T17:18:20.688Z,102194.91
2023-06-05T17:20:47.181Z,102206.94
2023-06-05T17:23:13.768Z,102198.16
2023-06-05T17:25:40.355Z,102196.22
2023-06-05T17:28:07.540Z,102197.59
2023-06-05T17:30:34.021Z,102202.13
2023-06-05T17:33:00.702Z,102201.88
2023-06-05T17:35:27.317Z,102199.88
2023-06-05T17:37:53.800Z,102202.50
2023-06-05T17:40:20.278Z,102201.94
2023-06-05T17:42:46.753Z,102206.69
2023-06-05T17:45:13.207Z,102200.81
2023-06-05T17:47:39.864Z,102198.72
2023-06-05T17:50:07.318Z,102194.56
2023-06-05T17:52:33.869Z,102199.19
2023-06-05T17:55:00.375Z,102198.56
2023-06-05T17:57:26.937Z,102199.59
2023-06-05T17:59:53.659Z,102208.66
2023-06-05T18:02:20.514Z,102197.72
2023-06-05T18:04:47.122Z,102208.22
2023-06-05T18:07:13.824Z,102199.69
2023-06-05T18:09:40.330Z,102206.03
2023-06-05T18:12:08.313Z,102210.38
2023-06-05T18:14:34.855Z,102208.00
2023-06-05T18:17:01.427Z,102209.44
2023-06-05T18:19:27.987Z,102207.03
2023-06-05T18:21:55.078Z,102209.56
2023-06-05T18:24:21.524Z,102214.31
2023-06-05T18:26:48.064Z,102202.69
2023-06-05T18:29:14.602Z,102210.75
2023-06-05T18:31:42.481Z,102214.19
2023-06-05T18:34:09.008Z,102207.94
2023-06-05T18:36:35.774Z,102213.38
2023-06-05T18:39:02.169Z,102200.91
2023-06-05T18:41:28.617Z,102207.22
2023-06-05T18:43:55.000Z,102198.50
2023-06-05T18:46:21.393Z,102212.38
2023-06-05T18:48:47.903Z,102204.25
2023-06-05T18:51:14.436Z,102214.50
2023-06-05T18:53:42.137Z,102202.13
2023-06-05T18:56:08.575Z,102209.19
2023-06-05T18:58:35.721Z,102199.00
2023-06-05T19:01:02.165Z,102215.34
2023-06-05T19:03:28.646Z,102209.25
2023-06-05T19:05:55.215Z,102209.00
2023-06-05T19:08:21.731Z,102211.50
2023-06-05T19:10:48.234Z,102215.38
2023-06-05T19:13:14.660Z,102212.50
2023-06-05T19:15:41.724Z,102209.91
2023-06-05T19:18:08.287Z,102212.72
2023-06-05T19:20:35.473Z,102218.25
2023-06-05T19:23:01.986Z,102214.25
2023-06-05T19:25:28.428Z,102216.47
2023-06-05T19:27:54.912Z,102215.50
2023-06-05T19:30:21.371Z,102220.72
2023-06-05T19:32:48.158Z,102224.34
2023-06-05T19:35:14.860Z,102225.69
2023-06-05T19:37:43.586Z,102233.59
2023-06-05T19:40:10.284Z,102227.97
2023-06-05T19:42:36.776Z,102232.72
2023-06-05T19:45:03.410Z,102238.78
2023-06-05T19:47:29.947Z,102240.44
2023-06-05T19:49:56.414Z,102246.72
2023-06-05T19:52:23.830Z,102244.31
2023-06-05T19:54:50.561Z,102246.81
2023-06-05T19:57:17.008Z,102240.66
2023-06-05T19:59:45.278Z,102250.19
2023-06-05T20:02:13.741Z,102250.72
2023-06-05T20:04:40.456Z,102271.03
2023-06-05T20:07:07.036Z,102257.81
2023-06-05T20:09:33.514Z,102265.16
2023-06-05T20:12:00.006Z,102270.59
2023-06-05T20:14:26.574Z,102269.28
2023-06-05T20:16:53.266Z,102267.66
2023-06-05T20:19:19.717Z,102273.88
2023-06-05T20:21:46.556Z,102270.38
2023-06-05T20:24:12.993Z,102276.91
2023-06-05T20:26:39.521Z,102282.06
2023-06-05T20:29:10.580Z,102282.88
2023-06-05T20:31:37.478Z,102280.16
2023-06-05T20:34:04.437Z,102281.25
2023-06-05T20:36:35.240Z,102279.13
2023-06-05T20:39:02.106Z,102282.38
2023-06-05T20:41:29.388Z,102269.38
2023-06-05T20:43:56.126Z,102278.53
2023-06-05T20:46:23.321Z,102273.94
2023-06-05T20:48:53.299Z,102274.47
2023-06-05T20:51:22.054Z,102281.50
2023-06-05T20:53:49.763Z,102282.28
2023-06-05T20:56:36.596Z,102284.69
2023-06-05T20:59:03.001Z,102280.63
2023-06-05T21:01:30.609Z,102288.19
2023-06-05T21:03:57.178Z,102283.03
2023-06-05T21:06:24.876Z,102284.91
2023-06-05T21:08:51.405Z,102283.53
2023-06-05T21:11:18.023Z,102288.06
2023-06-05T21:13:44.407Z,102284.81
2023-06-05T21:16:10.946Z,102305.56
2023-06-05T21:18:37.440Z,102299.34
2023-06-05T21:21:04.032Z,102298.47
2023-06-05T21:23:30.734Z,102302.47
2023-06-05T21:25:57.249Z,102301.31
2023-06-05T21:28:24.024Z,102301.28
2023-06-05T21:30:55.423Z,102305.00
2023-06-05T21:33:21.960Z,102307.38
2023-06-05T21:35:48.429Z,102300.63
2023-06-05T21:38:14.820Z,102313.78
2023-06-05T21:40:41.257Z,102300.78
2023-06-05T21:43:07.973Z,102303.19
2023-06-05T21:45:34.529Z,102306.91
2023-06-05T21:48:01.025Z,102307.09
2023-06-05T21:50:27.588Z,102302.78
2023-06-05T21:52:54.038Z,102311.09
2023-06-05T21:55:20.547Z,102311.63
2023-06-05T21:57:47.022Z,102306.44
2023-06-05T22:00:15.110Z,102300.47
2023-06-05T22:02:41.806Z,102310.13
2023-06-05T22:05:08.810Z,102299.28
2023-06-05T22:07:39.608Z,102307.34
2023-06-05T22:10:07.060Z,102300.75
2023-06-05T22:12:35.247Z,102302.41
2023-06-05T22:15:05.458Z,102306.69
2023-06-05T22:17:33.010Z,102300.16
2023-06-05T22:20:04.405Z,102308.44
2023-06-05T22:22:30.830Z,102314.41
2023-06-05T22:24:58.220Z,102315.72
2023-06-05T22:27:25.154Z,102314.78
2023-06-05T22:29:52.396Z,102314.19
2023-06-05T22:32:21.809Z,102310.13
2023-06-05T22:34:50.570Z,102319.47
2023-06-05T22:37:17.850Z,102325.34
2023-06-05T22:39:44.318Z,102320.72
2023-06-05T22:42:11.004Z,102319.66
2023-06-05T22:44:37.499Z,102324.72
2023-06-05T22:47:04.305Z,102323.00
2023-06-05T22:49:30.853Z,102324.03
2023-06-05T22:51:58.136Z,102327.78
2023-06-05T22:54:24.725Z,102320.19
2023-06-05T22:56:51.882Z,102333.09
2023-06-05T22:59:18.480Z,102332.50
2023-06-05T23:01:47.242Z,102330.31
2023-06-05T23:04:14.209Z,102336.22
2023-06-05T23:06:42.238Z,102333.44
2023-06-05T23:09:09.465Z,102329.59
2023-06-05T23:11:35.991Z,102331.97
2023-06-05T23:14:02.566Z,102337.63
2023-06-05T23:16:29.109Z,102333.78
2023-06-05T23:18:55.638Z,102328.09
2023-06-05T23:21:22.051Z,102343.41
2023-06-05T23:23:48.519Z,102334.53
2023-06-05T23:26:15.284Z,102337.13
2023-06-05T23:28:41.682Z,102338.44
2023-06-05T23:31:08.295Z,102337.38
2023-06-05T23:33:34.904Z,102350.50
2023-06-05T23:36:01.435Z,102348.78
2023-06-05T23:38:27.940Z,102339.56
2023-06-05T23:40:54.401Z,102335.81
2023-06-05T23:43:20.901Z,102338.50
2023-06-05T23:45:47.374Z,102336.56
2023-06-05T23:48:13.841Z,102346.69
2023-06-05T23:50:40.523Z,102342.03
2023-06-05T23:53:07.056Z,102330.44
2023-06-05T23:55:33.942Z,102343.56
2023-06-05T23:58:00.533Z,102337.88
